createdAt,value
2023-05-15T00:01:14.079Z,13.00
2023-05-15T00:06:15.742Z,12.87
2023-05-15T00:11:17.498Z,12.65
2023-05-15T00:16:19.372Z,12.25
2023-05-15T00:21:21.081Z,12.08
2023-05-15T00:26:23.379Z,12.15
2023-05-15T00:31:25.075Z,12.26
2023-05-15T00:36:26.749Z,11.88
2023-05-15T00:41:32.172Z,12.21
2023-05-15T00:46:35.690Z,11.98
2023-05-15T00:51:37.485Z,11.63
2023-05-15T00:56:40.284Z,11.62
2023-05-15T01:01:45.134Z,11.64
2023-05-15T01:06:48.760Z,11.33
2023-05-15T01:11:53.471Z,11.15
2023-05-15T01:16:55.141Z,11.26
2023-05-15T01:22:18.020Z,11.63
2023-05-15T01:27:32.189Z,11.66
2023-05-15T01:32:39.854Z,11.57
2023-05-15T01:37:45.533Z,11.09
2023-05-15T01:42:56.145Z,11.02
2023-05-15T01:48:00.639Z,11.13
2023-05-15T01:53:03.804Z,11.46
2023-05-15T01:58:05.510Z,11.63
2023-05-15T02:03:07.460Z,11.71
2023-05-15T02:08:09.794Z,11.74
2023-05-15T02:13:12.638Z,11.45
2023-05-15T02:18:14.306Z,11.50
2023-05-15T02:23:16.013Z,11.67
2023-05-15T02:28:24.289Z,11.76
2023-05-15T02:33:39.506Z,11.82
2023-05-15T02:38:47.162Z,12.04
2023-05-15T02:43:51.879Z,12.02
2023-05-15T02:48:54.835Z,11.70
2023-05-15T02:53:56.496Z,11.62
2023-05-15T02:58:58.170Z,11.63
2023-05-15T03:03:59.835Z,11.69
2023-05-15T03:09:01.540Z,11.57
2023-05-15T03:14:03.344Z,11.60
2023-05-15T03:19:05.462Z,11.55
2023-05-15T03:24:07.421Z,11.70
2023-05-15T03:29:09.090Z,11.83
2023-05-15T03:34:10.948Z,11.73
2023-05-15T03:39:12.632Z,11.69
2023-05-15T03:44:14.297Z,11.88
2023-05-15T03:49:16.015Z,11.98
2023-05-15T03:54:17.696Z,12.23
2023-05-15T03:59:19.260Z,12.09
2023-05-15T04:04:20.850Z,11.83
2023-05-15T04:09:22.463Z,11.92
2023-05-15T04:14:24.070Z,12.04
2023-05-15T04:19:25.705Z,11.89
2023-05-15T04:24:27.310Z,12.01
2023-05-15T04:29:28.910Z,12.06
2023-05-15T04:34:30.572Z,12.15
2023-05-15T04:39:32.241Z,11.81
2023-05-15T04:44:34.076Z,11.92
2023-05-15T04:49:35.694Z,12.37
2023-05-15T04:54:37.301Z,12.02
2023-05-15T04:59:38.954Z,12.07
2023-05-15T05:04:45.638Z,12.24
2023-05-15T05:09:47.348Z,12.37
2023-05-15T05:14:49.323Z,12.47
2023-05-15T05:19:51.011Z,12.72
2023-05-15T05:24:52.674Z,12.98
2023-05-15T05:29:54.378Z,13.19
2023-05-15T05:34:56.011Z,13.26
2023-05-15T05:39:57.671Z,13.23
2023-05-15T05:44:59.266Z,13.22
2023-05-15T05:50:01.086Z,13.43
2023-05-15T05:55:03.152Z,13.38
2023-05-15T06:00:10.545Z,13.43
2023-05-15T06:05:13.523Z,13.63
2023-05-15T06:10:15.676Z,13.99
2023-05-15T06:15:17.473Z,13.80
2023-05-15T06:20:19.131Z,13.69
2023-05-15T06:25:21.007Z,14.01
2023-05-15T06:30:23.018Z,14.03
2023-05-15T06:35:24.820Z,14.09
2023-05-15T06:40:26.636Z,14.24
2023-05-15T06:45:28.749Z,14.52
2023-05-15T06:50:30.667Z,14.81
2023-05-15T06:55:34.154Z,14.78
2023-05-15T07:00:35.754Z,14.78
2023-05-15T07:05:37.347Z,14.49
2023-05-15T07:10:38.962Z,14.89
2023-05-15T07:15:40.579Z,14.98
2023-05-15T07:20:42.452Z,15.42
2023-05-15T07:25:45.300Z,15.12
2023-05-15T07:30:47.769Z,15.34
2023-05-15T07:35:50.816Z,15.21
2023-05-15T07:40:52.462Z,15.06
2023-05-15T07:45:54.182Z,14.91
2023-05-15T07:50:57.075Z,15.53
2023-05-15T07:55:59.384Z,15.69
2023-05-15T08:01:01.140Z,15.78
2023-05-15T08:06:02.926Z,15.62
2023-05-15T08:11:04.640Z,15.57
2023-05-15T08:16:06.501Z,15.54
2023-05-15T08:21:08.302Z,15.32
2023-05-15T08:26:09.937Z,15.60
2023-05-15T08:31:11.671Z,15.74
2023-05-15T08:36:14.155Z,15.83
2023-05-15T08:41:40.110Z,15.78
2023-05-15T08:46:43.427Z,15.60
2023-05-15T08:51:45.597Z,15.63
2023-05-15T08:56:47.548Z,15.49
2023-05-15T09:01:49.869Z,15.72
2023-05-15T09:06:52.720Z,15.86
2023-05-15T09:11:54.678Z,15.76
2023-05-15T09:16:56.636Z,15.71
2023-05-15T09:22:16.422Z,16.12
2023-05-15T09:27:19.007Z,16.10
2023-05-15T09:32:20.689Z,16.37
2023-05-15T09:37:32.875Z,16.37
2023-05-15T09:42:35.305Z,16.47
2023-05-15T09:47:37.238Z,16.81
2023-05-15T09:52:39.308Z,16.97
2023-05-15T09:57:41.192Z,17.25
2023-05-15T10:02:42.923Z,17.07
2023-05-15T10:07:44.595Z,17.06
2023-05-15T10:12:48.337Z,17.44
2023-05-15T10:17:52.405Z,17.74
2023-05-15T10:22:56.261Z,17.50
2023-05-15T10:27:58.123Z,17.32
2023-05-15T10:33:01.034Z,17.87
2023-05-15T10:38:05.564Z,17.83
2023-05-15T10:43:10.276Z,18.00
2023-05-15T10:48:14.041Z,18.34
2023-05-15T10:53:16.240Z,19.28
2023-05-15T10:58:21.710Z,20.07
2023-05-15T11:03:48.171Z,20.06
2023-05-15T11:08:51.317Z,20.63
2023-05-15T11:14:05.424Z,20.96
2023-05-15T11:19:21.827Z,21.53
2023-05-15T11:24:58.720Z,20.63
2023-05-15T11:30:08.071Z,19.74
2023-05-15T11:35:11.469Z,19.03
2023-05-15T11:40:25.798Z,18.10
2023-05-15T11:45:40.092Z,17.47
2023-05-15T11:50:42.770Z,16.71
2023-05-15T11:55:44.716Z,16.68
2023-05-15T12:00:47.983Z,16.54
2023-05-15T12:05:58.342Z,16.50
2023-05-15T12:11:02.810Z,16.49
2023-05-15T12:16:05.040Z,16.52
2023-05-15T12:21:06.800Z,17.16
2023-05-15T12:26:08.520Z,17.88
2023-05-15T12:31:11.660Z,18.79
2023-05-15T12:36:13.314Z,18.85
2023-05-15T12:41:15.056Z,19.12
2023-05-15T12:46:21.807Z,19.92
2023-05-15T12:51:23.534Z,20.20
2023-05-15T12:56:26.222Z,20.24
2023-05-15T13:01:28.951Z,20.29
2023-05-15T13:06:44.881Z,20.59
2023-05-15T13:11:47.704Z,20.54
2023-05-15T13:16:49.338Z,20.72
2023-05-15T13:21:51.039Z,21.00
2023-05-15T13:26:52.931Z,20.98
2023-05-15T13:31:54.642Z,20.54
2023-05-15T13:36:56.226Z,21.06
2023-05-15T13:41:58.514Z,20.52
2023-05-15T13:47:04.290Z,21.03
2023-05-15T13:52:06.372Z,21.45
2023-05-15T13:57:07.983Z,20.73
2023-05-15T14:02:09.564Z,20.56
2023-05-15T14:07:11.248Z,20.08
2023-05-15T14:12:12.986Z,20.36
2023-05-15T14:17:15.112Z,20.22
2023-05-15T14:22:16.713Z,19.87
2023-05-15T14:27:18.339Z,19.73
2023-05-15T14:32:20.107Z,19.59
2023-05-15T14:37:21.791Z,19.66
2023-05-15T14:42:23.560Z,19.49
2023-05-15T14:47:27.838Z,19.37
2023-05-15T14:52:29.578Z,19.53
2023-05-15T14:57:31.159Z,20.18
2023-05-15T15:02:33.010Z,20.72
2023-05-15T15:08:04.825Z,21.12
2023-05-15T15:13:07.805Z,21.33
2023-05-15T15:18:09.505Z,21.02
2023-05-15T15:23:11.109Z,21.01
2023-05-15T15:28:12.986Z,22.00
2023-05-15T15:33:14.579Z,21.64
2023-05-15T15:38:16.344Z,21.86
2023-05-15T15:43:17.960Z,21.12
2023-05-15T15:48:20.757Z,19.54
2023-05-15T15:53:22.931Z,18.09
2023-05-15T15:58:24.845Z,17.66
2023-05-15T16:03:26.647Z,16.97
2023-05-15T16:08:28.999Z,16.11
2023-05-15T16:13:30.659Z,15.61
2023-05-15T16:18:32.367Z,15.64
2023-05-15T16:23:35.466Z,15.92
2023-05-15T16:28:37.466Z,16.10
2023-05-15T16:33:39.202Z,15.86
2023-05-15T16:38:40.950Z,16.07
2023-05-15T16:43:42.630Z,16.11
2023-05-15T16:48:44.465Z,16.06
2023-05-15T16:53:47.068Z,15.95
2023-05-15T16:58:48.771Z,15.62
2023-05-15T17:03:50.843Z,15.43
2023-05-15T17:08:52.836Z,15.23
2023-05-15T17:13:54.514Z,15.63
2023-05-15T17:18:56.450Z,15.42
2023-05-15T17:23:58.278Z,15.46
2023-05-15T17:29:00.610Z,15.47
2023-05-15T17:34:02.285Z,15.51
2023-05-15T17:39:03.936Z,15.71
2023-05-15T17:44:05.794Z,15.81
2023-05-15T17:49:07.549Z,15.73
2023-05-15T17:54:09.193Z,15.74
2023-05-15T17:59:10.957Z,15.59
2023-05-15T18:04:27.561Z,15.61
2023-05-15T18:14:31.289Z,15.26
2023-05-15T18:19:33.224Z,15.15
2023-05-15T18:24:34.934Z,15.16
2023-05-15T18:29:36.615Z,15.03
2023-05-15T18:34:38.200Z,14.92
2023-05-15T18:39:40.006Z,14.75
2023-05-15T18:44:41.915Z,14.66
2023-05-15T18:49:43.785Z,14.48
2023-05-15T18:54:45.591Z,14.32
2023-05-15T18:59:48.127Z,14.18
2023-05-15T19:04:49.888Z,14.15
2023-05-15T19:09:51.742Z,14.30
2023-05-15T19:14:53.437Z,14.18
2023-05-15T19:19:55.255Z,14.02
2023-05-15T19:24:56.947Z,13.98
2023-05-15T19:29:58.990Z,13.89
2023-05-15T19:35:00.583Z,13.85
2023-05-15T19:40:02.299Z,13.81
2023-05-15T19:45:04.353Z,13.74
2023-05-15T19:50:06.753Z,13.70
2023-05-15T19:55:08.983Z,13.64
2023-05-15T20:00:12.349Z,13.66
2023-05-15T20:05:15.500Z,13.58
2023-05-15T20:10:18.972Z,13.54
2023-05-15T20:15:20.651Z,13.57
2023-05-15T20:20:23.005Z,13.50
2023-05-15T20:25:27.481Z,13.51
2023-05-15T20:30:29.641Z,13.70
2023-05-15T20:35:32.098Z,13.78
2023-05-15T20:40:33.721Z,14.14
2023-05-15T20:45:35.484Z,14.25
2023-05-15T20:50:37.458Z,14.32
2023-05-15T20:55:39.083Z,14.36
2023-05-15T21:00:40.690Z,14.26
2023-05-15T21:05:42.312Z,14.22
2023-05-15T21:10:44.089Z,14.31
2023-05-15T21:15:45.701Z,14.39
2023-05-15T21:20:47.339Z,14.33
2023-05-15T21:25:49.000Z,14.29
2023-05-15T21:30:50.671Z,14.41
2023-05-15T21:35:52.727Z,14.20
2023-05-15T21:40:54.310Z,14.24
2023-05-15T21:45:57.004Z,13.98
2023-05-15T21:50:58.751Z,14.05
2023-05-15T21:56:01.789Z,14.02
2023-05-15T22:01:03.492Z,13.89
2023-05-15T22:06:05.180Z,13.93
2023-05-15T22:11:07.333Z,13.79
2023-05-15T22:16:09.539Z,13.74
2023-05-15T22:21:11.401Z,13.66
2023-05-15T22:26:13.089Z,13.59
2023-05-15T22:31:14.707Z,13.54
2023-05-15T22:36:16.495Z,13.53
2023-05-15T22:41:18.255Z,13.35
2023-05-15T22:46:19.918Z,13.34
2023-05-15T22:51:22.288Z,13.27
2023-05-15T22:56:24.031Z,13.16
2023-05-15T23:01:25.949Z,13.21
2023-05-15T23:06:27.692Z,13.15
2023-05-15T23:11:29.313Z,13.11
2023-05-15T23:16:31.186Z,12.96
2023-05-15T23:21:32.966Z,12.89
2023-05-15T23:26:34.601Z,12.87
2023-05-15T23:31:36.238Z,12.92
2023-05-15T23:36:37.947Z,12.79
2023-05-15T23:41:39.532Z,12.85
2023-05-15T23:46:41.171Z,12.77
2023-05-15T23:51:43.674Z,12.74
2023-05-15T23:56:45.358Z,12.70
